Nicole Leigh Reinauer — WCZ5696 — position and weather

sailwx.info

Track history (hours):
 
Tides and Currents Weather Stations Pressure Air Temp Water Temp Dewpoint Dewpoint Depression Visibility Wind Speed Wind Dir Waves Ship Positions

Nicole Leigh Reinauer

Owner: H A REINAUER INC, STATEN ISLAND, NY. More information available from US FCC via Universal Licensing System and Coast Guard Vessel Documentation Center.

Last reported at 2017-Aug-19 16:30 UTC. Time now 2017-Aug-19 16:42 UTC.
Position N 40°57' W 073°54'.

Length 167 m; draft 8 m.

Type: Tanker. MMSI: 366774330.

Date/timePositionNaut miles runAvg speedWind from/ knotsBaromVisibWave heightAir tempDewpointWater temp
2017-Aug-19 16:30N 40°57' W 073°54'5 9.8
2017-Aug-19 16:00N 40°52' W 073°56'5 9.7
2017-Aug-19 15:30N 40°48' W 073°59'510.0
2017-Aug-19 15:00N 40°43' W 074°01'9 8.9
2017-Aug-19 14:00N 40°39' W 074°11'3 6.6
2017-Aug-19 13:29N 40°35' W 074°12'0 0.2
2017-Aug-19 13:00N 40°35' W 074°13'0 0.0
2017-Aug-19 02:14N 40°35' W 074°13'2 8.9
2017-Aug-19 02:00N 40°37' W 074°12'4 7.3
2017-Aug-19 01:31N 40°38' W 074°08'2 3.1
2017-Aug-19 00:56N 40°39' W 074°05'0 0.0
2017-Aug-19 00:26N 40°39' W 074°05'0 0.0
2017-Aug-18 23:59N 40°39' W 074°05'0 0.0
2017-Aug-18 23:29N 40°39' W 074°05'0 0.0
2017-Aug-18 22:56N 40°39' W 074°05'0 0.0
2017-Aug-18 22:31N 40°39' W 074°05'5 9.8
2017-Aug-18 22:00N 40°38' W 074°12'2 4.0
2017-Aug-18 21:31N 40°36' W 074°12'4 8.0
2017-Aug-18 21:01N 40°39' W 074°08'0 0.0
2017-Aug-18 16:51N 40°38' W 074°08'3 8.4
2017-Aug-18 16:30N 40°38' W 074°12'2 0.9
2017-Aug-18 14:00N 40°36' W 074°12'4 8.1
2017-Aug-18 13:30N 40°39' W 074°08'0 0.2
2017-Aug-18 12:30N 40°38' W 074°08'4 7.3
2017-Aug-18 12:00N 40°37' W 074°12'1 0.1
2017-Aug-18 01:57N 40°35' W 074°12'1 1.6
2017-Aug-18 01:30N 40°36' W 074°12'3 7.1
2017-Aug-18 01:00N 40°39' W 074°09'4 8.5
2017-Aug-18 00:31N 40°38' W 074°03'510.6
2017-Aug-18 00:01N 40°33' W 074°01'510.0
2017-Aug-17 23:30N 40°30' W 073°56'510.5
2017-Aug-17 23:00N 40°28' W 073°50'511.1
2017-Aug-17 22:30N 40°29' W 073°42'16611.1
2017-Aug-17 07:35N 41°47' W 070°28'511.5
2017-Aug-17 07:10N 41°52' W 070°28'811.8
2017-Aug-17 06:31N 41°60' W 070°29'012.0
2017-Aug-17 06:29N 42°00' W 070°29'612.0
2017-Aug-17 06:00N 42°06' W 070°30'611.6
2017-Aug-17 05:31N 42°11' W 070°32'611.6
2017-Aug-17 05:00N 42°15' W 070°38'612.0
2017-Aug-17 04:31N 42°19' W 070°44'611.6
2017-Aug-17 04:01N 42°23' W 070°50'510.7
2017-Aug-17 03:31N 42°20' W 070°57'5 9.5
2017-Aug-17 03:01N 42°22' W 071°03'2 3.5
2017-Aug-17 02:31N 42°23' W 071°01'1 1.3
2017-Aug-17 02:01N 42°24' W 071°01'0 0.0
2017-Aug-17 01:30N 42°24' W 071°01'0 0.0
2017-Aug-16 01:02N 42°24' W 071°01'0 0.0
2017-Aug-16 01:00N 42°24' W 071°01'1 1.8
2017-Aug-16 00:30N 42°23' W 071°02'1 2.7
2017-Aug-16 00:00N 42°22' W 071°03'4 9.0
2017-Aug-15 23:30N 42°20' W 070°57'4 7.3
2017-Aug-15 23:00N 42°23' W 070°54'510.3
2017-Aug-15 22:30N 42°21' W 070°47'611.8
2017-Aug-15 22:00N 42°18' W 070°41'611.6
2017-Aug-15 21:30N 42°14' W 070°35'611.2
2017-Aug-15 21:00N 42°09' W 070°31'611.5
2017-Aug-15 20:29N 42°03' W 070°30'116 9.2
2017-Aug-15 07:50N 40°46' W 072°26'411.7
2017-Aug-15 07:30N 40°45' W 072°31'611.5
2017-Aug-15 07:00N 40°42' W 072°38'611.5
2017-Aug-15 06:28N 40°40' W 072°45'711.5
2017-Aug-15 05:52N 40°38' W 072°54'411.4
2017-Aug-15 05:30N 40°37' W 072°59'611.4
2017-Aug-15 05:00N 40°35' W 073°07'611.3
2017-Aug-15 04:26N 40°34' W 073°15'511.2
2017-Aug-15 03:57N 40°32' W 073°21'611.1
2017-Aug-15 03:25N 40°30' W 073°29'611.4
2017-Aug-15 02:54N 40°29' W 073°37'811.6
2017-Aug-15 02:13N 40°28' W 073°47'211.6
2017-Aug-15 02:00N 40°28' W 073°50'611.3
2017-Aug-15 01:30N 40°30' W 073°57'5 9.7
2017-Aug-15 01:00N 40°33' W 074°02'612.0
2017-Aug-15 00:30N 40°39' W 074°05'5 9.6
2017-Aug-15 00:00N 40°39' W 074°11'3 6.3
2017-Aug-14 23:30N 40°36' W 074°12'3 5.4
2017-Aug-14 23:00N 40°33' W 074°14'0 0.0
2017-Aug-13 09:07N 40°33' W 074°14'0 0.0
2017-Aug-13 08:56N 40°33' W 074°14'0 0.0
2017-Aug-13 08:24N 40°33' W 074°14'1 2.7
2017-Aug-13 07:57N 40°34' W 074°13'4 9.5
2017-Aug-13 07:30N 40°38' W 074°12'4 8.3
2017-Aug-13 07:00N 40°39' W 074°07'3 6.8
2017-Aug-13 06:30N 40°40' W 074°02'0 0.4
2017-Aug-13 05:59N 40°40' W 074°02'0 0.0
2017-Aug-13 05:29N 40°40' W 074°02'0 0.0
2017-Aug-13 04:59N 40°40' W 074°02'0 0.0
2017-Aug-13 04:29N 40°40' W 074°02'0 0.0
2017-Aug-13 03:59N 40°40' W 074°02'0 0.1
2017-Aug-13 03:29N 40°40' W 074°02'0 0.1
2017-Aug-13 02:59N 40°40' W 074°02'0 0.0
2017-Aug-13 02:29N 40°40' W 074°02'0 0.1
2017-Aug-13 01:59N 40°40' W 074°02'0 0.2
2017-Aug-13 01:29N 40°40' W 074°02'0 0.1
2017-Aug-13 00:59N 40°40' W 074°02'0 0.1
2017-Aug-13 00:29N 40°40' W 074°02'0 0.1
2017-Aug-12 23:59N 40°40' W 074°02'0 0.1
2017-Aug-12 23:29N 40°40' W 074°02'0 0.1
2017-Aug-12 22:59N 40°40' W 074°02'0 0.1
2017-Aug-12 22:29N 40°40' W 074°02'0 0.0
2017-Aug-12 21:58N 40°40' W 074°02'0 0.0
2017-Aug-12 21:29N 40°40' W 074°02'0 0.0
2017-Aug-12 20:59N 40°40' W 074°02'0 0.0
2017-Aug-12 20:29N 40°40' W 074°02'0 0.0
2017-Aug-12 19:59N 40°40' W 074°02'0 0.2
2017-Aug-12 19:25N 40°40' W 074°02'0 0.3
2017-Aug-12 18:59N 40°40' W 074°02'0 0.2
2017-Aug-12 18:29N 40°40' W 074°02'0 0.1
2017-Aug-12 17:58N 40°40' W 074°02'0 0.0
2017-Aug-12 17:28N 40°40' W 074°02'0 0.0
2017-Aug-12 16:59N 40°40' W 074°02'0 0.0
2017-Aug-12 16:29N 40°40' W 074°02'0 0.0
2017-Aug-12 15:59N 40°40' W 074°02'0 0.0
2017-Aug-12 15:29N 40°40' W 074°02'0 0.0
2017-Aug-12 14:59N 40°40' W 074°02'0 0.0
2017-Aug-12 14:29N 40°40' W 074°02'0 0.1
2017-Aug-12 13:59N 40°40' W 074°02'0 0.2
2017-Aug-12 13:29N 40°40' W 074°02'0 0.1
2017-Aug-12 12:58N 40°40' W 074°02'0 0.1
2017-Aug-12 12:29N 40°40' W 074°02'0 0.1
2017-Aug-12 11:59N 40°40' W 074°02'0 0.0
2017-Aug-12 11:29N 40°40' W 074°02'0 0.0
2017-Aug-12 10:59N 40°40' W 074°02'0 0.0
2017-Aug-12 10:30N 40°40' W 074°02'0 0.0
2017-Aug-12 10:00N 40°40' W 074°02'0 0.0
2017-Aug-12 09:30N 40°40' W 074°02'0 0.0
2017-Aug-12 09:00N 40°40' W 074°02'0 0.1
2017-Aug-12 08:30N 40°40' W 074°02'0 0.0
2017-Aug-12 08:00N 40°40' W 074°02'0 0.7
2017-Aug-12 07:30N 40°40' W 074°03'510.0
2017-Aug-12 07:00N 40°45' W 074°01'611.1
2017-Aug-12 06:30N 40°50' W 073°58'510.4
2017-Aug-12 06:00N 40°55' W 073°55'3 0.1
2017-Aug-10 14:02N 40°57' W 073°54'712.4
2017-Aug-10 13:30N 40°51' W 073°57'612.4
2017-Aug-10 13:00N 40°46' W 074°01'612.0
2017-Aug-10 12:31N 40°40' W 074°03'5 9.1
2017-Aug-10 12:01N 40°39' W 074°09'3 6.7
2017-Aug-10 11:31N 40°37' W 074°12'  
Track history (hours):
 
Tides and Currents Weather Stations Pressure Air Temp Water Temp Dewpoint Dewpoint Depression Visibility Wind Speed Wind Dir Waves Ship Positions

Nicole Leigh Reinauer

Owner: H A REINAUER INC, STATEN ISLAND, NY. More information available from US FCC via Universal Licensing System and Coast Guard Vessel Documentation Center.

Last reported at 2017-Aug-19 16:30 UTC. Time now 2017-Aug-19 16:42 UTC.
Position N 40°57' W 073°54'.

Length 167 m; draft 8 m.

Type: Tanker. MMSI: 366774330.

Date/timePositionNaut miles runAvg speedWind from/ knotsBaromVisibWave heightAir tempDewpointWater temp
2017-Aug-19 16:30N 40°57' W 073°54'5 9.8
2017-Aug-19 16:00N 40°52' W 073°56'5 9.7
2017-Aug-19 15:30N 40°48' W 073°59'510.0
2017-Aug-19 15:00N 40°43' W 074°01'9 8.9
2017-Aug-19 14:00N 40°39' W 074°11'3 6.6
2017-Aug-19 13:29N 40°35' W 074°12'0 0.2
2017-Aug-19 13:00N 40°35' W 074°13'0 0.0
2017-Aug-19 02:14N 40°35' W 074°13'2 8.9
2017-Aug-19 02:00N 40°37' W 074°12'4 7.3
2017-Aug-19 01:31N 40°38' W 074°08'2 3.1
2017-Aug-19 00:56N 40°39' W 074°05'0 0.0
2017-Aug-19 00:26N 40°39' W 074°05'0 0.0
2017-Aug-18 23:59N 40°39' W 074°05'0 0.0
2017-Aug-18 23:29N 40°39' W 074°05'0 0.0
2017-Aug-18 22:56N 40°39' W 074°05'0 0.0
2017-Aug-18 22:31N 40°39' W 074°05'5 9.8
2017-Aug-18 22:00N 40°38' W 074°12'2 4.0
2017-Aug-18 21:31N 40°36' W 074°12'4 8.0
2017-Aug-18 21:01N 40°39' W 074°08'0 0.0
2017-Aug-18 16:51N 40°38' W 074°08'3 8.4
2017-Aug-18 16:30N 40°38' W 074°12'2 0.9
2017-Aug-18 14:00N 40°36' W 074°12'4 8.1
2017-Aug-18 13:30N 40°39' W 074°08'0 0.2
2017-Aug-18 12:30N 40°38' W 074°08'4 7.3
2017-Aug-18 12:00N 40°37' W 074°12'1 0.1
2017-Aug-18 01:57N 40°35' W 074°12'1 1.6
2017-Aug-18 01:30N 40°36' W 074°12'3 7.1
2017-Aug-18 01:00N 40°39' W 074°09'4 8.5
2017-Aug-18 00:31N 40°38' W 074°03'510.6
2017-Aug-18 00:01N 40°33' W 074°01'510.0
2017-Aug-17 23:30N 40°30' W 073°56'510.5
2017-Aug-17 23:00N 40°28' W 073°50'511.1
2017-Aug-17 22:30N 40°29' W 073°42'16611.1
2017-Aug-17 07:35N 41°47' W 070°28'511.5
2017-Aug-17 07:10N 41°52' W 070°28'811.8
2017-Aug-17 06:31N 41°60' W 070°29'012.0
2017-Aug-17 06:29N 42°00' W 070°29'612.0
2017-Aug-17 06:00N 42°06' W 070°30'611.6
2017-Aug-17 05:31N 42°11' W 070°32'611.6
2017-Aug-17 05:00N 42°15' W 070°38'612.0
2017-Aug-17 04:31N 42°19' W 070°44'611.6
2017-Aug-17 04:01N 42°23' W 070°50'510.7
2017-Aug-17 03:31N 42°20' W 070°57'5 9.5
2017-Aug-17 03:01N 42°22' W 071°03'2 3.5
2017-Aug-17 02:31N 42°23' W 071°01'1 1.3
2017-Aug-17 02:01N 42°24' W 071°01'0 0.0
2017-Aug-17 01:30N 42°24' W 071°01'0 0.0
2017-Aug-16 01:02N 42°24' W 071°01'0 0.0
2017-Aug-16 01:00N 42°24' W 071°01'1 1.8
2017-Aug-16 00:30N 42°23' W 071°02'1 2.7
2017-Aug-16 00:00N 42°22' W 071°03'4 9.0
2017-Aug-15 23:30N 42°20' W 070°57'4 7.3
2017-Aug-15 23:00N 42°23' W 070°54'510.3
2017-Aug-15 22:30N 42°21' W 070°47'611.8
2017-Aug-15 22:00N 42°18' W 070°41'611.6
2017-Aug-15 21:30N 42°14' W 070°35'611.2
2017-Aug-15 21:00N 42°09' W 070°31'611.5
2017-Aug-15 20:29N 42°03' W 070°30'116 9.2
2017-Aug-15 07:50N 40°46' W 072°26'411.7
2017-Aug-15 07:30N 40°45' W 072°31'611.5
2017-Aug-15 07:00N 40°42' W 072°38'611.5
2017-Aug-15 06:28N 40°40' W 072°45'711.5
2017-Aug-15 05:52N 40°38' W 072°54'411.4
2017-Aug-15 05:30N 40°37' W 072°59'611.4
2017-Aug-15 05:00N 40°35' W 073°07'611.3
2017-Aug-15 04:26N 40°34' W 073°15'511.2
2017-Aug-15 03:57N 40°32' W 073°21'611.1
2017-Aug-15 03:25N 40°30' W 073°29'611.4
2017-Aug-15 02:54N 40°29' W 073°37'811.6
2017-Aug-15 02:13N 40°28' W 073°47'211.6
2017-Aug-15 02:00N 40°28' W 073°50'611.3
2017-Aug-15 01:30N 40°30' W 073°57'5 9.7
2017-Aug-15 01:00N 40°33' W 074°02'612.0
2017-Aug-15 00:30N 40°39' W 074°05'5 9.6
2017-Aug-15 00:00N 40°39' W 074°11'3 6.3
2017-Aug-14 23:30N 40°36' W 074°12'3 5.4
2017-Aug-14 23:00N 40°33' W 074°14'0 0.0
2017-Aug-13 09:07N 40°33' W 074°14'0 0.0
2017-Aug-13 08:56N 40°33' W 074°14'0 0.0
2017-Aug-13 08:24N 40°33' W 074°14'1 2.7
2017-Aug-13 07:57N 40°34' W 074°13'4 9.5
2017-Aug-13 07:30N 40°38' W 074°12'4 8.3
2017-Aug-13 07:00N 40°39' W 074°07'3 6.8
2017-Aug-13 06:30N 40°40' W 074°02'0 0.4
2017-Aug-13 05:59N 40°40' W 074°02'0 0.0
2017-Aug-13 05:29N 40°40' W 074°02'0 0.0
2017-Aug-13 04:59N 40°40' W 074°02'0 0.0
2017-Aug-13 04:29N 40°40' W 074°02'0 0.0
2017-Aug-13 03:59N 40°40' W 074°02'0 0.1
2017-Aug-13 03:29N 40°40' W 074°02'0 0.1
2017-Aug-13 02:59N 40°40' W 074°02'0 0.0
2017-Aug-13 02:29N 40°40' W 074°02'0 0.1
2017-Aug-13 01:59N 40°40' W 074°02'0 0.2
2017-Aug-13 01:29N 40°40' W 074°02'0 0.1
2017-Aug-13 00:59N 40°40' W 074°02'0 0.1
2017-Aug-13 00:29N 40°40' W 074°02'0 0.1
2017-Aug-12 23:59N 40°40' W 074°02'0 0.1
2017-Aug-12 23:29N 40°40' W 074°02'0 0.1
2017-Aug-12 22:59N 40°40' W 074°02'0 0.1
2017-Aug-12 22:29N 40°40' W 074°02'0 0.0
2017-Aug-12 21:58N 40°40' W 074°02'0 0.0
2017-Aug-12 21:29N 40°40' W 074°02'0 0.0
2017-Aug-12 20:59N 40°40' W 074°02'0 0.0
2017-Aug-12 20:29N 40°40' W 074°02'0 0.0
2017-Aug-12 19:59N 40°40' W 074°02'0 0.2
2017-Aug-12 19:25N 40°40' W 074°02'0 0.3
2017-Aug-12 18:59N 40°40' W 074°02'0 0.2
2017-Aug-12 18:29N 40°40' W 074°02'0 0.1
2017-Aug-12 17:58N 40°40' W 074°02'0 0.0
2017-Aug-12 17:28N 40°40' W 074°02'0 0.0
2017-Aug-12 16:59N 40°40' W 074°02'0 0.0
2017-Aug-12 16:29N 40°40' W 074°02'0 0.0
2017-Aug-12 15:59N 40°40' W 074°02'0 0.0
2017-Aug-12 15:29N 40°40' W 074°02'0 0.0
2017-Aug-12 14:59N 40°40' W 074°02'0 0.0
2017-Aug-12 14:29N 40°40' W 074°02'0 0.1
2017-Aug-12 13:59N 40°40' W 074°02'0 0.2
2017-Aug-12 13:29N 40°40' W 074°02'0 0.1
2017-Aug-12 12:58N 40°40' W 074°02'0 0.1
2017-Aug-12 12:29N 40°40' W 074°02'0 0.1
2017-Aug-12 11:59N 40°40' W 074°02'0 0.0
2017-Aug-12 11:29N 40°40' W 074°02'0 0.0
2017-Aug-12 10:59N 40°40' W 074°02'0 0.0
2017-Aug-12 10:30N 40°40' W 074°02'0 0.0
2017-Aug-12 10:00N 40°40' W 074°02'0 0.0
2017-Aug-12 09:30N 40°40' W 074°02'0 0.0
2017-Aug-12 09:00N 40°40' W 074°02'0 0.1
2017-Aug-12 08:30N 40°40' W 074°02'0 0.0
2017-Aug-12 08:00N 40°40' W 074°02'0 0.7
2017-Aug-12 07:30N 40°40' W 074°03'510.0
2017-Aug-12 07:00N 40°45' W 074°01'611.1
2017-Aug-12 06:30N 40°50' W 073°58'510.4
2017-Aug-12 06:00N 40°55' W 073°55'3 0.1
2017-Aug-10 14:02N 40°57' W 073°54'712.4
2017-Aug-10 13:30N 40°51' W 073°57'612.4
2017-Aug-10 13:00N 40°46' W 074°01'612.0
2017-Aug-10 12:31N 40°40' W 074°03'5 9.1
2017-Aug-10 12:01N 40°39' W 074°09'3 6.7
2017-Aug-10 11:31N 40°37' W 074°12'  

Dump ship's entire track history